Ellendale, North Carolina
Current Conditions -  °F | °C
As of 10:03 AM on Wednesday 26 Nov 2014 (Local Time) from KHKY Reporting Station
Light Rain Light Rain  
Wind Chill: 37°   Ceiling: 3200
Heat Index: 41°   Visibility: 9mi
Dew Point: 39°   Wind: 6mph
Humidity: 93%   Direction: 10°N
Pressure: 30"   Gusts: NA
Location:  35.9243°N, 81.216°W
Report Text: KHKY 261503Z 01005KT 9SM -RA BKN032 OVC055 05/04 A3000 RMK AO2 P0000 T00500039
Loading
Personal Weather Stations






























Interactive Weather Map New forecast layout! Learn more

10-Day Weather Forecast

Advertisements
Track Severe Weather on mobile